Time;durP1;ratioP1;P1;durP2;ratioP2;P2;SDS_P1;SDS_P2;PMS_P1;PMS_P2;Temp;Humidity;BMP_temperature;BMP_pressure;BME280_temperature;BME280_humidity;BME280_pressure;Samples;Min_cycle;Max_cycle;Signal;HPM_P1;HPM_P2
2021/12/06 00:01:22;;;;;;;3.73;3.10;;;6.80;99.90;;;;;;5052709;28;21134;-66
2021/12/06 00:03:53;;;;;;;3.70;3.00;;;6.80;99.90;;;;;;5043101;28;20188;-66
2021/12/06 00:06:21;;;;;;;4.03;3.00;;;6.80;99.90;;;;;;5051659;28;20197;-66
2021/12/06 00:08:50;;;;;;;3.30;2.87;;;6.80;99.90;;;;;;5054895;28;20196;-66
2021/12/06 00:11:18;;;;;;;3.73;2.87;;;6.80;99.90;;;;;;5053399;28;20252;-66
2021/12/06 00:13:50;;;;;;;5.63;3.10;;;6.80;99.90;;;;;;5051648;28;20178;-66
2021/12/06 00:16:21;;;;;;;3.37;3.00;;;6.80;99.90;;;;;;5052235;28;20177;-66
2021/12/06 00:18:48;;;;;;;4.00;3.20;;;6.80;99.90;;;;;;5055194;28;20197;-65
2021/12/06 00:21:13;;;;;;;4.07;3.17;;;6.80;99.90;;;;;;5054625;28;20177;-66
2021/12/06 00:23:42;;;;;;;4.17;3.27;;;6.70;99.90;;;;;;5048988;28;20177;-66
2021/12/06 00:26:09;;;;;;;5.27;2.80;;;6.80;99.90;;;;;;5052065;28;20216;-66
2021/12/06 00:28:35;;;;;;;3.87;2.83;;;6.70;99.90;;;;;;5052878;28;20189;-66
2021/12/06 00:31:04;;;;;;;3.87;2.87;;;6.70;99.90;;;;;;5057003;28;20189;-66
2021/12/06 00:33:30;;;;;;;3.50;2.80;;;6.70;99.90;;;;;;5052954;28;20178;-66
2021/12/06 00:36:02;;;;;;;4.13;2.90;;;6.70;99.90;;;;;;5051840;28;20183;-66
2021/12/06 00:38:28;;;;;;;3.87;2.80;;;6.70;99.90;;;;;;5045136;28;20244;-66
2021/12/06 00:40:56;;;;;;;4.17;2.77;;;6.60;99.90;;;;;;5056135;28;20550;-66
2021/12/06 00:43:24;;;;;;;3.63;2.70;;;6.60;99.90;;;;;;5053507;28;20208;-66
2021/12/06 00:45:50;;;;;;;2.80;2.43;;;6.60;99.90;;;;;;5053972;28;20206;-64
2021/12/06 00:48:16;;;;;;;3.53;2.40;;;6.60;99.90;;;;;;5053031;28;20197;-65
2021/12/06 00:50:43;;;;;;;4.27;2.37;;;6.50;99.90;;;;;;5046980;28;20235;-64
2021/12/06 00:53:11;;;;;;;3.20;2.50;;;6.50;99.90;;;;;;5054288;28;20204;-64
2021/12/06 00:55:37;;;;;;;3.70;2.47;;;6.40;99.90;;;;;;5048459;28;20181;-64
2021/12/06 00:58:06;;;;;;;3.57;2.30;;;6.40;99.90;;;;;;5053626;28;20211;-66
2021/12/06 01:00:40;;;;;;;2.93;2.20;;;6.30;99.90;;;;;;5056089;28;20245;-66
2021/12/06 01:03:09;;;;;;;2.90;2.60;;;6.20;99.90;;;;;;5047479;28;20280;-66
2021/12/06 01:05:35;;;;;;;3.10;2.53;;;6.20;99.90;;;;;;5059181;28;20197;-66
2021/12/06 01:08:07;;;;;;;3.03;2.50;;;6.10;99.90;;;;;;5051778;28;20186;-66
2021/12/06 01:10:34;;;;;;;3.90;2.63;;;6.00;99.90;;;;;;5053254;28;20185;-66
2021/12/06 01:13:01;;;;;;;3.90;2.90;;;6.00;99.90;;;;;;5054851;28;20240;-66
2021/12/06 01:15:27;;;;;;;3.23;2.73;;;5.90;99.90;;;;;;5053221;28;20189;-66
2021/12/06 01:17:58;;;;;;;2.83;2.50;;;5.80;99.90;;;;;;5051982;28;20217;-66
2021/12/06 01:20:30;;;;;;;3.57;2.70;;;5.80;99.90;;;;;;5051916;28;20184;-66
2021/12/06 01:23:02;;;;;;;3.43;2.50;;;5.70;99.90;;;;;;5049426;28;20172;-64
2021/12/06 01:25:51;;;;;;;3.43;2.37;;;5.60;99.90;;;;;;5049631;28;20288;-64
2021/12/06 01:28:47;;;;;;;2.70;2.23;;;5.50;99.90;;;;;;5051897;28;20223;-67
2021/12/06 01:31:32;;;;;;;3.10;2.23;;;5.50;99.90;;;;;;5052732;28;20201;-67
2021/12/06 01:41:37;;;;;;;4.70;3.50;;;5.30;99.90;;;;;;5045764;28;20185;-67
2021/12/06 01:44:12;;;;;;;4.87;3.67;;;5.20;99.90;;;;;;5049351;28;20223;-66
2021/12/06 01:46:51;;;;;;;4.43;3.40;;;5.20;99.90;;;;;;5062073;28;20181;-64
2021/12/06 01:49:21;;;;;;;4.70;3.17;;;5.20;99.90;;;;;;5062889;28;20193;-64
2021/12/06 01:51:53;;;;;;;3.33;2.90;;;5.20;99.90;;;;;;5051799;28;20260;-64
2021/12/06 01:54:20;;;;;;;4.40;3.10;;;5.20;99.90;;;;;;5052346;28;20248;-67
2021/12/06 01:56:48;;;;;;;4.87;3.20;;;5.10;99.90;;;;;;5050790;28;20271;-64
2021/12/06 01:59:14;;;;;;;4.23;3.33;;;5.20;99.90;;;;;;5047886;28;20226;-64
2021/12/06 02:01:41;;;;;;;3.50;3.10;;;5.10;99.90;;;;;;5048446;28;20193;-64
2021/12/06 02:04:07;;;;;;;3.90;3.00;;;5.10;99.90;;;;;;5045474;28;20193;-65
2021/12/06 02:06:34;;;;;;;4.17;3.20;;;5.10;99.90;;;;;;5049925;28;20189;-65
2021/12/06 02:09:01;;;;;;;3.73;3.13;;;5.00;99.90;;;;;;5047797;28;20239;-64
2021/12/06 02:11:35;;;;;;;3.10;2.77;;;5.00;99.90;;;;;;5046820;28;20420;-65
2021/12/06 02:16:31;;;;;;;3.77;3.07;;;4.90;99.90;;;;;;5051853;28;20177;-64
2021/12/06 02:19:03;;;;;;;3.90;3.10;;;4.90;99.90;;;;;;5047484;28;20202;-64
2021/12/06 02:21:37;;;;;;;4.60;3.10;;;4.80;99.90;;;;;;5052653;28;20177;-65
2021/12/06 02:24:09;;;;;;;5.23;3.53;;;4.80;99.90;;;;;;5048826;28;20186;-65
2021/12/06 02:26:40;;;;;;;3.90;3.00;;;4.70;99.90;;;;;;5050301;28;20182;-64
2021/12/06 02:29:07;;;;;;;4.17;3.07;;;4.70;99.90;;;;;;5050543;28;20509;-64
2021/12/06 02:31:33;;;;;;;4.30;3.37;;;4.60;99.90;;;;;;5067279;28;20197;-64
2021/12/06 02:34:01;;;;;;;4.47;2.97;;;4.50;99.90;;;;;;5052571;28;20221;-65
2021/12/06 02:36:27;;;;;;;3.57;2.87;;;4.40;99.90;;;;;;5054205;28;20219;-64
2021/12/06 02:38:56;;;;;;;4.43;3.13;;;4.40;99.90;;;;;;5050216;28;20197;-64
2021/12/06 02:41:22;;;;;;;3.60;3.13;;;4.40;99.90;;;;;;5052059;28;20190;-64
2021/12/06 02:43:51;;;;;;;3.97;3.17;;;4.40;99.90;;;;;;5058198;28;20184;-65
2021/12/06 02:46:22;;;;;;;4.17;3.23;;;4.40;99.90;;;;;;5056162;28;20200;-64
2021/12/06 02:48:51;;;;;;;4.03;3.00;;;4.30;99.90;;;;;;5053093;28;20238;-64
2021/12/06 02:51:18;;;;;;;4.27;3.17;;;4.30;99.90;;;;;;5051494;28;20181;-65
2021/12/06 02:53:44;;;;;;;3.80;3.20;;;4.20;99.90;;;;;;5051114;28;20170;-64
2021/12/06 02:56:28;;;;;;;3.70;2.90;;;4.20;99.90;;;;;;5055728;28;20206;-64
2021/12/06 02:58:56;;;;;;;3.53;3.00;;;4.10;99.90;;;;;;5051101;28;20223;-64
2021/12/06 03:01:43;;;;;;;3.53;2.87;;;4.10;99.90;;;;;;5050882;28;20177;-64
2021/12/06 03:04:13;;;;;;;3.50;2.80;;;4.10;99.90;;;;;;5048206;28;20177;-65
2021/12/06 03:06:41;;;;;;;3.97;3.27;;;4.00;99.90;;;;;;5051659;28;20421;-64
2021/12/06 03:09:12;;;;;;;3.83;3.10;;;4.00;99.90;;;;;;5053696;28;20260;-65
2021/12/06 03:12:03;;;;;;;3.67;3.10;;;4.00;99.90;;;;;;5048585;28;20187;-65
2021/12/06 03:14:35;;;;;;;3.13;2.73;;;4.00;99.90;;;;;;5047445;28;20181;-64
2021/12/06 03:17:04;;;;;;;4.13;3.10;;;4.00;99.90;;;;;;5066829;28;20208;-64
2021/12/06 03:19:35;;;;;;;4.13;2.77;;;4.00;99.90;;;;;;5053953;28;20199;-64
2021/12/06 03:22:00;;;;;;;3.43;3.00;;;4.00;99.90;;;;;;5050850;28;20193;-64
2021/12/06 03:24:26;;;;;;;5.00;3.20;;;4.00;99.90;;;;;;5051110;28;20310;-64
2021/12/06 03:26:53;;;;;;;4.03;2.97;;;4.00;99.90;;;;;;5051149;28;20193;-65
2021/12/06 03:29:20;;;;;;;3.20;2.73;;;4.00;99.90;;;;;;5050476;28;20261;-64
2021/12/06 03:31:49;;;;;;;3.87;3.03;;;4.00;99.90;;;;;;5048008;28;20189;-65
2021/12/06 03:34:17;;;;;;;3.57;2.77;;;4.00;99.90;;;;;;5057495;28;20181;-65
2021/12/06 03:36:43;;;;;;;4.87;3.20;;;3.90;99.90;;;;;;5056200;28;20435;-65
2021/12/06 03:39:23;;;;;;;3.80;3.40;;;4.00;99.90;;;;;;5062696;28;20235;-65
2021/12/06 03:41:53;;;;;;;3.67;3.10;;;4.00;99.90;;;;;;5054021;28;20191;-65
2021/12/06 03:44:21;;;;;;;4.93;3.73;;;4.00;99.90;;;;;;5055071;28;20185;-65
2021/12/06 03:46:52;;;;;;;4.60;3.63;;;4.00;99.90;;;;;;5053070;28;20169;-65
2021/12/06 03:49:20;;;;;;;4.30;3.90;;;4.00;99.90;;;;;;5068594;28;20187;-65
2021/12/06 03:51:51;;;;;;;6.13;3.90;;;4.00;99.90;;;;;;5052076;28;20181;-65
2021/12/06 03:54:25;;;;;;;4.97;4.27;;;4.00;99.90;;;;;;5055948;28;20205;-65
2021/12/06 03:56:54;;;;;;;4.43;3.87;;;4.00;99.90;;;;;;5055138;28;20171;-65
2021/12/06 03:59:20;;;;;;;5.03;4.20;;;4.00;99.90;;;;;;5056344;28;20192;-65
2021/12/06 04:01:51;;;;;;;5.40;4.40;;;4.00;99.90;;;;;;5050969;28;20190;-65
2021/12/06 04:04:17;;;;;;;4.93;4.10;;;4.00;99.90;;;;;;5054999;28;20188;-64
2021/12/06 04:06:46;;;;;;;5.83;4.73;;;4.00;99.90;;;;;;5047672;28;20209;-74
2021/12/06 04:09:13;;;;;;;5.00;4.30;;;4.00;99.90;;;;;;5052225;28;20201;-73
2021/12/06 04:11:41;;;;;;;7.43;5.00;;;4.00;99.90;;;;;;5046932;28;20208;-75
2021/12/06 04:14:08;;;;;;;5.70;4.60;;;3.90;99.90;;;;;;5052317;28;20181;-73
2021/12/06 04:16:35;;;;;;;6.07;5.03;;;3.90;99.90;;;;;;5055727;28;20220;-74
2021/12/06 04:19:04;;;;;;;7.27;5.37;;;3.90;99.90;;;;;;5049711;28;20227;-73
2021/12/06 04:21:30;;;;;;;6.40;5.10;;;3.90;99.90;;;;;;5047858;28;20184;-75
2021/12/06 04:23:56;;;;;;;5.93;5.27;;;3.80;99.90;;;;;;5054795;28;20205;-75
2021/12/06 04:26:24;;;;;;;8.00;6.13;;;3.80;99.90;;;;;;5048021;28;20192;-75
2021/12/06 04:28:58;;;;;;;9.53;5.97;;;3.80;99.90;;;;;;5052765;28;20178;-73
2021/12/06 04:31:28;;;;;;;8.73;6.40;;;3.70;99.90;;;;;;5049112;28;20185;-75
2021/12/06 04:33:54;;;;;;;8.67;5.93;;;3.70;99.90;;;;;;5050795;28;20289;-76
2021/12/06 04:36:20;;;;;;;7.73;5.70;;;3.60;99.90;;;;;;5045575;28;20272;-73
2021/12/06 04:38:46;;;;;;;8.40;6.50;;;3.60;99.90;;;;;;5055377;28;20555;-77
2021/12/06 04:41:14;;;;;;;7.70;5.90;;;3.60;99.90;;;;;;5053636;28;20169;-77
2021/12/06 04:43:42;;;;;;;7.87;6.07;;;3.60;99.90;;;;;;5052323;28;20358;-75
2021/12/06 04:46:10;;;;;;;9.73;7.10;;;3.50;99.90;;;;;;5052985;28;20193;-77
2021/12/06 04:48:38;;;;;;;11.00;7.33;;;3.50;99.90;;;;;;5053871;28;20180;-73
2021/12/06 04:51:08;;;;;;;10.07;7.47;;;3.50;99.90;;;;;;5067531;28;20177;-76
2021/12/06 04:53:38;;;;;;;10.90;7.47;;;3.40;99.90;;;;;;5049888;28;20189;-75
2021/12/06 04:56:10;;;;;;;11.50;7.27;;;3.40;99.90;;;;;;5053352;28;20201;-75
2021/12/06 04:58:46;;;;;;;12.83;7.70;;;3.40;99.90;;;;;;5067194;28;20312;-76
2021/12/06 05:01:19;;;;;;;12.37;8.17;;;3.50;99.90;;;;;;5051198;28;20185;-72
2021/12/06 05:03:45;;;;;;;14.67;8.30;;;3.50;99.90;;;;;;5053227;28;20181;-74
2021/12/06 05:06:18;;;;;;;13.60;8.47;;;3.50;99.90;;;;;;5049207;28;20279;-76
2021/12/06 05:08:50;;;;;;;13.53;8.93;;;3.60;99.90;;;;;;5063748;28;21036;-74
2021/12/06 05:11:18;;;;;;;14.70;9.27;;;3.60;99.90;;;;;;5044577;28;20185;-75
2021/12/06 05:13:47;;;;;;;13.70;8.17;;;3.70;99.90;;;;;;5055712;28;20197;-75
2021/12/06 05:16:16;;;;;;;12.33;8.60;;;3.70;99.90;;;;;;5053079;28;20215;-75
2021/12/06 05:18:42;;;;;;;13.27;8.23;;;3.80;99.90;;;;;;5053669;28;20236;-76
2021/12/06 05:21:10;;;;;;;13.40;8.47;;;3.80;99.90;;;;;;5057139;28;20205;-75
2021/12/06 05:23:41;;;;;;;14.43;8.50;;;3.80;99.90;;;;;;5053308;28;20177;-75
2021/12/06 05:26:12;;;;;;;15.10;7.90;;;3.80;99.90;;;;;;5057971;28;20212;-74
2021/12/06 05:28:43;;;;;;;13.63;8.60;;;3.90;99.90;;;;;;5049642;28;20209;-75
2021/12/06 05:31:20;;;;;;;12.60;8.40;;;3.90;99.90;;;;;;5050999;28;20277;-76
2021/12/06 05:33:58;;;;;;;13.27;7.93;;;4.00;99.90;;;;;;5049563;28;20323;-74
2021/12/06 05:36:26;;;;;;;11.97;7.93;;;4.00;99.90;;;;;;5051985;28;20231;-76
2021/12/06 05:38:54;;;;;;;13.37;8.33;;;4.00;99.90;;;;;;5066862;28;20250;-75
2021/12/06 05:41:20;;;;;;;13.10;8.50;;;4.10;99.90;;;;;;5051299;28;20187;-72
2021/12/06 05:43:47;;;;;;;12.73;8.00;;;4.10;99.90;;;;;;5051892;28;20256;-75
2021/12/06 05:46:16;;;;;;;10.10;7.93;;;4.20;99.90;;;;;;5055071;28;20253;-75
2021/12/06 05:48:44;;;;;;;13.50;8.63;;;4.20;99.90;;;;;;5049842;28;20173;-75
2021/12/06 05:51:10;;;;;;;17.17;10.43;;;4.20;99.90;;;;;;5054674;28;20428;-73
2021/12/06 05:53:35;;;;;;;14.33;9.27;;;4.20;99.90;;;;;;5047806;28;20189;-75
2021/12/06 05:56:04;;;;;;;12.80;8.47;;;4.30;99.90;;;;;;5050687;28;20235;-74
2021/12/06 05:58:34;;;;;;;11.63;8.40;;;4.30;99.90;;;;;;5055180;28;20342;-74
2021/12/06 06:01:00;;;;;;;11.77;8.13;;;4.30;99.90;;;;;;5054378;28;20279;-75
2021/12/06 06:03:26;;;;;;;12.93;8.57;;;4.40;99.90;;;;;;5057880;28;20341;-74
2021/12/06 06:05:57;;;;;;;12.17;8.07;;;4.40;99.90;;;;;;5061201;28;20203;-73
2021/12/06 06:08:23;;;;;;;9.87;7.33;;;4.40;99.90;;;;;;5063770;28;20191;-76
2021/12/06 06:10:51;;;;;;;9.27;6.90;;;4.40;99.90;;;;;;5054535;28;20185;-78
2021/12/06 06:13:17;;;;;;;11.47;7.70;;;4.40;99.90;;;;;;5053935;28;20215;-76
2021/12/06 06:15:43;;;;;;;8.97;6.80;;;4.50;99.90;;;;;;5052010;28;20187;-77
2021/12/06 06:18:10;;;;;;;8.70;6.87;;;4.50;99.90;;;;;;5051577;28;20189;-76
2021/12/06 06:20:37;;;;;;;11.90;8.47;;;4.50;99.90;;;;;;5048401;28;20185;-75
2021/12/06 06:23:08;;;;;;;9.70;7.67;;;4.50;99.90;;;;;;5071474;28;20173;-73
2021/12/06 06:25:38;;;;;;;8.50;7.17;;;4.50;99.90;;;;;;5055258;28;20193;-77
2021/12/06 06:28:05;;;;;;;8.63;6.97;;;4.50;99.90;;;;;;5051221;28;20184;-73
2021/12/06 06:30:33;;;;;;;8.63;6.73;;;4.50;99.90;;;;;;5034531;28;20209;-74
2021/12/06 06:32:59;;;;;;;9.40;7.27;;;4.50;99.90;;;;;;5045285;28;20432;-72
2021/12/06 06:38:03;;;;;;;8.93;7.20;;;4.50;99.90;;;;;;5530217;22;20757;-65
2021/12/06 06:40:29;;;;;;;9.23;7.63;;;4.50;99.90;;;;;;5052693;28;20189;-65
2021/12/06 06:42:57;;;;;;;9.13;7.10;;;4.50;99.90;;;;;;5029649;28;20212;-65
2021/12/06 06:45:23;;;;;;;9.23;7.00;;;4.50;99.90;;;;;;5031608;28;20204;-65
2021/12/06 06:47:52;;;;;;;8.77;6.93;;;4.50;99.90;;;;;;5029670;28;20175;-65
2021/12/06 06:50:19;;;;;;;8.63;6.87;;;4.50;99.90;;;;;;5031231;28;20166;-65
2021/12/06 06:52:46;;;;;;;9.00;6.80;;;4.50;99.90;;;;;;5029161;28;20170;-65
2021/12/06 06:55:12;;;;;;;9.03;7.03;;;4.50;99.90;;;;;;5026634;28;20279;-65
2021/12/06 06:57:42;;;;;;;8.60;6.87;;;4.50;99.90;;;;;;5031549;28;20233;-65
2021/12/06 07:00:14;;;;;;;9.70;7.77;;;4.50;99.90;;;;;;5024020;28;20185;-65
2021/12/06 07:02:40;;;;;;;9.13;7.13;;;4.50;99.90;;;;;;5043219;28;20190;-65
2021/12/06 07:05:07;;;;;;;9.33;7.27;;;4.50;99.90;;;;;;5032511;28;20247;-65
2021/12/06 07:07:33;;;;;;;10.27;7.43;;;4.60;99.90;;;;;;5033951;28;20215;-65
2021/12/06 07:10:02;;;;;;;9.37;7.43;;;4.60;99.90;;;;;;5032596;28;20182;-64
2021/12/06 07:12:28;;;;;;;10.50;7.60;;;4.50;99.90;;;;;;5032945;28;20213;-65
2021/12/06 07:14:54;;;;;;;8.90;7.17;;;4.60;99.90;;;;;;5034363;28;20236;-65
2021/12/06 07:17:21;;;;;;;8.60;6.90;;;4.50;99.90;;;;;;5034108;28;20202;-65
2021/12/06 07:19:50;;;;;;;8.90;7.20;;;4.50;99.90;;;;;;5031241;28;20194;-65
2021/12/06 07:22:18;;;;;;;9.80;7.23;;;4.60;99.90;;;;;;5038828;28;20170;-65
2021/12/06 07:24:43;;;;;;;8.23;6.73;;;4.60;99.90;;;;;;5033658;28;20178;-65
2021/12/06 07:27:14;;;;;;;8.30;6.80;;;4.60;99.90;;;;;;5035288;28;20185;-65
2021/12/06 07:29:40;;;;;;;9.17;7.20;;;4.50;99.90;;;;;;5037615;28;20214;-65
2021/12/06 07:32:08;;;;;;;8.87;6.63;;;4.50;99.90;;;;;;5029488;28;20352;-65
2021/12/06 07:34:36;;;;;;;9.93;7.67;;;4.50;99.90;;;;;;5033691;28;20182;-65
2021/12/06 07:37:04;;;;;;;9.67;7.97;;;4.50;99.90;;;;;;5040486;28;20200;-65
2021/12/06 07:39:30;;;;;;;9.00;6.90;;;4.50;99.90;;;;;;5035108;28;20162;-65
2021/12/06 07:41:59;;;;;;;8.67;6.47;;;4.50;99.90;;;;;;5032075;28;20185;-65
2021/12/06 07:44:27;;;;;;;7.63;6.10;;;4.50;99.90;;;;;;5013672;28;20223;-65
2021/12/06 07:46:52;;;;;;;8.80;6.37;;;4.50;99.90;;;;;;4971149;28;20173;-65
2021/12/06 07:49:22;;;;;;;6.77;5.70;;;4.50;99.90;;;;;;4967050;28;20287;-64
2021/12/06 07:51:50;;;;;;;7.13;5.80;;;4.40;99.90;;;;;;4966701;28;20197;-64
2021/12/06 07:54:16;;;;;;;7.57;5.50;;;4.40;99.90;;;;;;4972472;28;20184;-65
2021/12/06 07:56:43;;;;;;;6.67;5.17;;;4.40;99.90;;;;;;4973216;28;20206;-65
2021/12/06 07:59:11;;;;;;;6.70;5.50;;;4.40;99.90;;;;;;4980294;28;20204;-65
2021/12/06 08:01:39;;;;;;;6.10;5.03;;;4.40;99.90;;;;;;4971670;28;20215;-64
2021/12/06 08:04:06;;;;;;;7.30;5.63;;;4.50;99.90;;;;;;4971795;28;20212;-65
2021/12/06 08:06:37;;;;;;;6.17;5.00;;;4.50;99.90;;;;;;4970403;28;20410;-65
2021/12/06 08:09:04;;;;;;;7.47;5.77;;;4.50;99.90;;;;;;4979634;28;20282;-65
2021/12/06 08:11:29;;;;;;;8.47;6.07;;;4.50;99.90;;;;;;4988437;28;20199;-65
2021/12/06 08:13:55;;;;;;;9.03;6.07;;;4.50;99.90;;;;;;4986930;28;20209;-65
2021/12/06 08:16:27;;;;;;;6.77;5.40;;;4.60;99.90;;;;;;4970923;28;20207;-65
2021/12/06 08:18:53;;;;;;;8.00;5.67;;;4.60;99.90;;;;;;4979062;28;20204;-65
2021/12/06 08:21:21;;;;;;;6.80;5.33;;;4.60;99.90;;;;;;4967241;28;20184;-65
2021/12/06 08:23:56;;;;;;;6.77;5.50;;;4.70;99.90;;;;;;4965893;28;20185;-65
2021/12/06 08:26:25;;;;;;;7.10;5.43;;;4.70;99.90;;;;;;4966792;28;20199;-65
2021/12/06 08:28:51;;;;;;;7.63;5.57;;;4.70;99.90;;;;;;4970802;28;20195;-65
2021/12/06 08:31:22;;;;;;;7.57;5.90;;;4.70;99.90;;;;;;4970139;28;20196;-65
2021/12/06 08:33:49;;;;;;;6.10;5.07;;;4.70;99.90;;;;;;4971303;28;20246;-65
2021/12/06 08:36:18;;;;;;;6.63;5.23;;;4.70;99.90;;;;;;4969528;28;20203;-65
2021/12/06 08:38:48;;;;;;;6.20;5.23;;;4.70;99.90;;;;;;4970086;28;20295;-65
2021/12/06 08:41:21;;;;;;;7.27;5.90;;;4.70;99.90;;;;;;4982869;28;20202;-65
2021/12/06 08:43:51;;;;;;;6.80;5.70;;;4.80;99.90;;;;;;5024139;28;20196;-65
2021/12/06 08:46:27;;;;;;;7.17;5.80;;;4.80;99.90;;;;;;4997425;28;20201;-65
2021/12/06 08:48:56;;;;;;;7.37;5.77;;;4.80;99.90;;;;;;4949755;29;20206;-65
2021/12/06 08:51:26;;;;;;;7.10;5.63;;;4.80;99.90;;;;;;4950739;28;20213;-67
2021/12/06 08:53:53;;;;;;;8.07;5.83;;;4.80;99.90;;;;;;4949568;29;20188;-65
2021/12/06 08:56:19;;;;;;;7.13;5.40;;;4.90;99.90;;;;;;4946335;29;20243;-64
2021/12/06 08:58:46;;;;;;;7.20;5.37;;;5.00;99.90;;;;;;4956145;28;20204;-65
2021/12/06 09:01:12;;;;;;;7.47;5.60;;;5.10;99.90;;;;;;4949102;29;20205;-65
2021/12/06 09:03:40;;;;;;;6.87;5.37;;;5.40;99.90;;;;;;4949077;28;20243;-65
2021/12/06 09:06:09;;;;;;;5.70;4.93;;;5.60;99.90;;;;;;4949062;29;20197;-65
2021/12/06 09:08:36;;;;;;;6.60;5.23;;;5.90;99.90;;;;;;4946687;29;20223;-64
2021/12/06 09:11:04;;;;;;;5.67;4.77;;;6.00;99.90;;;;;;4952896;28;20196;-65
2021/12/06 09:13:31;;;;;;;5.43;4.63;;;6.10;99.90;;;;;;4954049;28;20200;-65
2021/12/06 09:16:01;;;;;;;5.43;4.70;;;6.30;99.90;;;;;;4950367;29;20228;-65
2021/12/06 09:18:34;;;;;;;6.83;5.23;;;6.40;99.90;;;;;;4949814;28;20220;-65
2021/12/06 09:21:03;;;;;;;6.53;4.60;;;6.60;99.90;;;;;;4943626;28;20224;-65
2021/12/06 09:23:33;;;;;;;4.77;4.23;;;6.80;99.90;;;;;;4943738;29;20230;-65
2021/12/06 09:25:59;;;;;;;5.20;4.40;;;6.90;99.90;;;;;;5036472;28;20259;-65
2021/12/06 09:28:27;;;;;;;7.57;4.97;;;7.10;99.90;;;;;;4966618;28;20205;-65
2021/12/06 09:30:53;;;;;;;6.47;4.60;;;7.20;99.90;;;;;;4950828;28;20200;-65
2021/12/06 09:33:22;;;;;;;5.67;4.63;;;7.30;99.90;;;;;;4940381;29;20205;-64
2021/12/06 09:35:49;;;;;;;6.07;4.83;;;7.40;99.90;;;;;;4967115;28;20220;-65
2021/12/06 09:38:26;;;;;;;5.97;4.90;;;7.50;99.90;;;;;;4949808;29;20219;-65
2021/12/06 09:40:55;;;;;;;5.77;4.90;;;7.60;99.90;;;;;;4965333;28;20228;-65
2021/12/06 09:43:22;;;;;;;6.27;5.03;;;7.70;99.90;;;;;;4957351;28;20204;-65
2021/12/06 09:45:49;;;;;;;6.40;5.70;;;7.70;99.90;;;;;;4929681;29;20194;-65
2021/12/06 09:48:19;;;;;;;6.87;5.43;;;7.80;99.90;;;;;;4940117;29;20186;-65
2021/12/06 09:50:55;;;;;;;6.03;5.40;;;7.90;99.90;;;;;;4929624;29;20280;-65
2021/12/06 09:53:25;;;;;;;7.17;5.90;;;7.90;99.90;;;;;;4932592;29;20195;-65
2021/12/06 09:55:53;;;;;;;8.10;6.87;;;8.00;99.90;;;;;;4929785;29;20196;-65
2021/12/06 09:58:22;;;;;;;13.17;7.30;;;8.00;99.90;;;;;;4944855;28;20237;-65
2021/12/06 10:00:52;;;;;;;16.30;8.37;;;8.10;99.90;;;;;;4929267;29;20203;-65
2021/12/06 10:03:25;;;;;;;10.43;8.27;;;8.10;99.90;;;;;;5009290;28;20193;-66
2021/12/06 10:05:52;;;;;;;11.10;8.40;;;8.10;99.90;;;;;;4930039;29;20167;-65
2021/12/06 10:08:20;;;;;;;12.13;8.20;;;8.10;99.90;;;;;;4932182;28;20185;-65
2021/12/06 10:10:49;;;;;;;8.77;7.57;;;8.00;99.90;;;;;;4933167;28;20252;-66
2021/12/06 10:13:16;;;;;;;9.00;7.43;;;8.10;99.90;;;;;;4918957;29;20193;-66
2021/12/06 10:15:46;;;;;;;10.23;7.80;;;8.10;99.90;;;;;;4930831;29;20527;-66
2021/12/06 10:18:16;;;;;;;9.33;7.20;;;8.20;99.90;;;;;;4931856;29;20197;-65
2021/12/06 10:20:45;;;;;;;8.57;7.13;;;8.20;99.90;;;;;;4931966;29;20193;-65
2021/12/06 10:23:14;;;;;;;9.70;7.27;;;8.30;99.90;;;;;;4928461;29;20486;-65
2021/12/06 10:25:43;;;;;;;9.63;7.60;;;8.30;99.90;;;;;;4937891;29;20173;-65
2021/12/06 10:28:09;;;;;;;12.47;8.67;;;8.30;99.90;;;;;;4932370;29;20190;-65
2021/12/06 10:30:45;;;;;;;9.93;7.50;;;8.30;99.90;;;;;;4935059;28;20204;-66
2021/12/06 10:33:14;;;;;;;10.13;7.47;;;8.40;99.90;;;;;;4931686;29;20184;-67
2021/12/06 10:35:42;;;;;;;11.67;7.63;;;8.40;99.90;;;;;;4931702;28;20220;-67
2021/12/06 10:38:19;;;;;;;9.43;7.37;;;8.40;99.90;;;;;;4929225;29;20233;-67
2021/12/06 10:40:45;;;;;;;7.70;6.20;;;8.50;99.90;;;;;;4931017;28;20192;-67
2021/12/06 10:43:15;;;;;;;10.17;7.97;;;8.60;99.90;;;;;;4947233;28;20195;-67
2021/12/06 10:45:47;;;;;;;9.90;6.97;;;8.60;99.90;;;;;;4950468;29;20169;-67
2021/12/06 10:48:25;;;;;;;9.13;7.00;;;8.60;99.90;;;;;;4948273;29;20197;-66
2021/12/06 10:50:51;;;;;;;8.40;7.10;;;8.60;99.90;;;;;;4953298;29;20195;-66
2021/12/06 10:53:19;;;;;;;10.93;6.37;;;8.60;99.90;;;;;;4939370;29;20209;-66
2021/12/06 10:55:52;;;;;;;9.23;6.67;;;8.70;99.90;;;;;;4949616;28;20185;-66
2021/12/06 10:58:20;;;;;;;9.00;6.70;;;8.70;99.90;;;;;;4950821;29;20220;-66
2021/12/06 11:00:51;;;;;;;7.93;5.97;;;8.70;99.90;;;;;;4992188;28;20177;-66
2021/12/06 11:03:23;;;;;;;7.77;6.10;;;8.80;99.90;;;;;;4946923;29;20197;-65
2021/12/06 11:06:02;;;;;;;7.30;5.67;;;8.90;99.90;;;;;;4952051;28;20189;-65
2021/12/06 11:08:29;;;;;;;9.73;6.07;;;9.00;99.90;;;;;;4951034;29;20189;-64
2021/12/06 11:11:05;;;;;;;7.97;6.13;;;9.10;99.90;;;;;;4956992;28;20211;-65
2021/12/06 11:13:35;;;;;;;8.17;6.00;;;9.20;99.90;;;;;;4943417;29;20185;-65
2021/12/06 11:16:17;;;;;;;8.03;5.97;;;9.30;99.90;;;;;;4952056;29;20254;-65
2021/12/06 11:18:47;;;;;;;8.57;6.00;;;9.40;99.90;;;;;;4947598;29;20284;-65
2021/12/06 11:21:27;;;;;;;7.77;5.57;;;9.60;99.90;;;;;;4955469;28;20205;-65
2021/12/06 11:24:08;;;;;;;9.20;6.47;;;9.80;99.90;;;;;;4945497;29;20193;-65
2021/12/06 11:26:43;;;;;;;7.80;6.03;;;10.00;99.90;;;;;;4958092;28;20191;-65
2021/12/06 11:29:28;;;;;;;7.70;6.07;;;10.20;99.90;;;;;;4952586;28;20188;-65
2021/12/06 11:31:59;;;;;;;9.03;5.67;;;10.50;99.90;;;;;;4953224;28;20288;-65
2021/12/06 11:34:31;;;;;;;6.50;5.40;;;10.70;99.90;;;;;;4946396;28;20288;-65
2021/12/06 11:36:57;;;;;;;7.60;5.70;;;11.00;99.90;;;;;;4958923;28;20177;-65
2021/12/06 11:39:26;;;;;;;7.37;5.57;;;11.20;99.90;;;;;;4949413;29;20227;-65
2021/12/06 11:41:56;;;;;;;7.40;5.03;;;11.50;99.90;;;;;;4913304;28;1106504;-67
2021/12/06 11:44:38;;;;;;;6.70;5.63;;;11.70;99.90;;;;;;4952172;29;20177;-65
2021/12/06 11:47:10;;;;;;;7.32;5.90;;;11.90;99.90;;;;;;4947545;29;20183;-65
2021/12/06 11:49:49;;;;;;;5.60;4.53;;;12.10;99.90;;;;;;4950316;28;20256;-65
2021/12/06 11:52:29;;;;;;;7.00;5.35;;;12.20;99.90;;;;;;4951544;29;20177;-65
2021/12/06 11:55:02;;;;;;;10.30;6.15;;;12.40;99.90;;;;;;4949970;29;20260;-66
2021/12/06 11:57:33;;;;;;;9.88;6.10;;;12.40;99.90;;;;;;4952011;29;20263;-65
2021/12/06 12:00:11;;;;;;;6.88;5.75;;;12.40;99.90;;;;;;4953126;29;20300;-66
2021/12/06 12:02:44;;;;;;;8.15;6.22;;;12.40;99.90;;;;;;4949010;28;20263;-65
2021/12/06 12:05:24;;;;;;;7.75;6.03;;;12.40;99.90;;;;;;4952875;29;20309;-65
2021/12/06 12:08:12;;;;;;;7.35;5.45;;;12.40;99.90;;;;;;4944307;29;20267;-65
2021/12/06 12:10:46;;;;;;;7.85;6.07;;;12.40;99.90;;;;;;4956912;28;20283;-65
2021/12/06 12:13:20;;;;;;;7.13;5.40;;;12.40;99.90;;;;;;4948058;29;20192;-65
2021/12/06 12:15:46;;;;;;;9.30;5.28;;;12.40;99.90;;;;;;4952286;29;20240;-65
2021/12/06 12:18:12;;;;;;;6.20;4.80;;;12.50;99.90;;;;;;4951613;29;20303;-65
2021/12/06 12:20:38;;;;;;;7.05;5.20;;;12.50;99.90;;;;;;4957591;28;20267;-66
2021/12/06 12:23:08;;;;;;;5.85;4.60;;;12.50;99.90;;;;;;4946583;28;20330;-66
2021/12/06 12:25:43;;;;;;;5.80;5.00;;;12.50;99.90;;;;;;4954811;28;20208;-65
2021/12/06 12:28:22;;;;;;;3.90;3.17;;;12.60;99.90;;;;;;4944832;29;20376;-66
2021/12/06 12:30:55;;;;;;;2.45;2.20;;;12.60;99.90;;;;;;4940302;28;20208;-66
2021/12/06 12:33:22;;;;;;;2.17;1.80;;;12.70;99.90;;;;;;4945489;29;20416;-66
2021/12/06 12:35:51;;;;;;;2.75;1.40;;;12.70;99.90;;;;;;4946431;29;20182;-66
2021/12/06 12:38:21;;;;;;;1.70;1.40;;;12.60;99.90;;;;;;4941136;29;20276;-66
2021/12/06 12:40:55;;;;;;;1.40;1.20;;;12.50;99.90;;;;;;4951522;28;20255;-66
2021/12/06 12:43:31;;;;;;;1.60;1.00;;;12.30;99.90;;;;;;4950702;29;20196;-66
2021/12/06 12:46:02;;;;;;;2.00;1.10;;;12.10;99.90;;;;;;4952951;28;20177;-66
2021/12/06 12:48:42;;;;;;;1.00;0.90;;;11.90;99.90;;;;;;4945570;28;20205;-66
2021/12/06 12:51:17;;;;;;;1.20;0.95;;;11.60;99.90;;;;;;4945918;29;20224;-66
2021/12/06 12:53:57;;;;;;;1.50;1.20;;;11.40;99.90;;;;;;4950635;29;20180;-66
2021/12/06 12:56:41;;;;;;;1.90;1.40;;;11.20;99.90;;;;;;4949085;29;20210;-66
2021/12/06 12:59:23;;;;;;;1.30;1.20;;;11.10;99.90;;;;;;4950032;29;20234;-65
2021/12/06 13:02:11;;;;;;;2.38;1.50;;;11.00;99.90;;;;;;4962714;28;20181;-66
2021/12/06 13:05:01;;;;;;;1.57;1.20;;;11.00;99.90;;;;;;4966606;28;20199;-66
2021/12/06 13:07:28;;;;;;;1.98;1.33;;;10.90;99.90;;;;;;4950528;29;20291;-66
2021/12/06 13:10:00;;;;;;;1.93;1.40;;;10.80;99.90;;;;;;4952041;29;20265;-65
2021/12/06 13:12:31;;;;;;;2.33;1.63;;;10.70;99.90;;;;;;4945293;29;20189;-66
2021/12/06 13:15:19;;;;;;;2.20;1.90;;;10.60;99.90;;;;;;4951559;29;20192;-66
2021/12/06 13:17:49;;;;;;;1.90;1.60;;;10.60;99.90;;;;;;4950557;28;20230;-65
2021/12/06 13:20:24;;;;;;;1.80;1.50;;;10.50;99.90;;;;;;4947988;29;20240;-65